Airport ICAO


13:15 UTC

25°C

Few clouds


An affordable passengers' Moving Map for your aircraft. Made for the iPad and the iPhone
More information here

LFMN Cote D'Azur


Nice FRANCE   VFR


METAR LFMN 251300Z VRB02KT 9999 FEW033 25/15 Q1015 NOSIG 0h15min

TAF LFMN 250800Z 2509/2615 14010KT CAVOK TEMPO 2513/2517 09010KT BECMG 2519/2520 34010KT BECMG 2607/2609 12010KT 5h15min





NOTAMS

OPEN